sensor_id;sensor_type;location;lat;lon;timestamp;P1;durP1;ratioP1;P2;durP2;ratioP2
46493;SDS011;53214;49.314;6.280;2024-03-02T00:00:06;21.92;;;5.75;;
46493;SDS011;53214;49.314;6.280;2024-03-02T00:02:42;21.80;;;6.22;;
46493;SDS011;53214;49.314;6.280;2024-03-02T00:05:11;21.52;;;6.68;;
46493;SDS011;53214;49.314;6.280;2024-03-02T00:07:41;18.80;;;5.82;;
46493;SDS011;53214;49.314;6.280;2024-03-02T00:10:10;16.40;;;4.95;;
46493;SDS011;53214;49.314;6.280;2024-03-02T00:12:38;19.98;;;5.18;;
46493;SDS011;53214;49.314;6.280;2024-03-02T00:15:06;12.63;;;3.20;;
46493;SDS011;53214;49.314;6.280;2024-03-02T00:17:45;14.88;;;3.78;;
46493;SDS011;53214;49.314;6.280;2024-03-02T00:20:14;18.60;;;3.83;;
46493;SDS011;53214;49.314;6.280;2024-03-02T00:22:44;12.98;;;2.70;;
46493;SDS011;53214;49.314;6.280;2024-03-02T00:25:14;15.18;;;3.97;;
46493;SDS011;53214;49.314;6.280;2024-03-02T00:27:41;18.67;;;4.03;;
46493;SDS011;53214;49.314;6.280;2024-03-02T00:30:36;20.67;;;4.78;;
46493;SDS011;53214;49.314;6.280;2024-03-02T00:33:17;21.33;;;4.30;;
46493;SDS011;53214;49.314;6.280;2024-03-02T00:35:44;13.77;;;4.15;;
46493;SDS011;53214;49.314;6.280;2024-03-02T00:38:11;18.77;;;4.22;;
46493;SDS011;53214;49.314;6.280;2024-03-02T00:40:42;14.27;;;3.97;;
46493;SDS011;53214;49.314;6.280;2024-03-02T00:46:03;17.30;;;4.85;;
46493;SDS011;53214;49.314;6.280;2024-03-02T00:48:30;12.32;;;3.17;;
46493;SDS011;53214;49.314;6.280;2024-03-02T00:51:02;13.32;;;3.10;;
46493;SDS011;53214;49.314;6.280;2024-03-02T00:53:30;16.10;;;3.25;;
46493;SDS011;53214;49.314;6.280;2024-03-02T00:56:01;15.63;;;3.30;;
46493;SDS011;53214;49.314;6.280;2024-03-02T00:58:28;15.02;;;3.03;;
46493;SDS011;53214;49.314;6.280;2024-03-02T01:00:55;11.32;;;2.90;;
46493;SDS011;53214;49.314;6.280;2024-03-02T01:03:22;10.48;;;2.75;;
46493;SDS011;53214;49.314;6.280;2024-03-02T01:05:49;10.95;;;2.40;;
46493;SDS011;53214;49.314;6.280;2024-03-02T01:08:16;11.52;;;2.47;;
46493;SDS011;53214;49.314;6.280;2024-03-02T01:10:42;9.45;;;1.80;;
46493;SDS011;53214;49.314;6.280;2024-03-02T01:13:09;9.20;;;1.95;;
46493;SDS011;53214;49.314;6.280;2024-03-02T01:15:36;9.63;;;2.42;;
46493;SDS011;53214;49.314;6.280;2024-03-02T01:18:03;7.10;;;1.70;;
46493;SDS011;53214;49.314;6.280;2024-03-02T01:20:30;12.75;;;1.98;;
46493;SDS011;53214;49.314;6.280;2024-03-02T01:22:57;16.92;;;3.03;;
46493;SDS011;53214;49.314;6.280;2024-03-02T01:25:24;12.43;;;2.33;;
46493;SDS011;53214;49.314;6.280;2024-03-02T01:27:51;15.10;;;2.50;;
46493;SDS011;53214;49.314;6.280;2024-03-02T01:30:18;18.30;;;3.35;;
46493;SDS011;53214;49.314;6.280;2024-03-02T01:32:45;17.52;;;2.92;;
46493;SDS011;53214;49.314;6.280;2024-03-02T01:35:12;20.02;;;3.17;;
46493;SDS011;53214;49.314;6.280;2024-03-02T01:37:38;13.70;;;2.90;;
46493;SDS011;53214;49.314;6.280;2024-03-02T01:40:05;16.33;;;2.80;;
46493;SDS011;53214;49.314;6.280;2024-03-02T01:42:36;15.82;;;2.80;;
46493;SDS011;53214;49.314;6.280;2024-03-02T01:45:07;18.25;;;3.50;;
46493;SDS011;53214;49.314;6.280;2024-03-02T01:47:35;16.92;;;3.05;;
46493;SDS011;53214;49.314;6.280;2024-03-02T01:50:02;13.30;;;3.15;;
46493;SDS011;53214;49.314;6.280;2024-03-02T01:52:29;14.60;;;3.42;;
46493;SDS011;53214;49.314;6.280;2024-03-02T01:54:56;13.50;;;2.50;;
46493;SDS011;53214;49.314;6.280;2024-03-02T01:57:23;18.45;;;3.28;;
46493;SDS011;53214;49.314;6.280;2024-03-02T01:59:50;11.70;;;2.55;;
46493;SDS011;53214;49.314;6.280;2024-03-02T02:02:17;12.57;;;2.60;;
46493;SDS011;53214;49.314;6.280;2024-03-02T02:04:44;10.93;;;2.55;;
46493;SDS011;53214;49.314;6.280;2024-03-02T02:07:11;10.93;;;2.53;;
46493;SDS011;53214;49.314;6.280;2024-03-02T02:09:38;15.48;;;2.95;;
46493;SDS011;53214;49.314;6.280;2024-03-02T02:12:04;13.63;;;2.45;;
46493;SDS011;53214;49.314;6.280;2024-03-02T02:14:33;18.65;;;2.80;;
46493;SDS011;53214;49.314;6.280;2024-03-02T02:17:00;13.82;;;2.00;;
46493;SDS011;53214;49.314;6.280;2024-03-02T02:19:26;10.15;;;1.98;;
46493;SDS011;53214;49.314;6.280;2024-03-02T02:21:53;11.95;;;1.90;;
46493;SDS011;53214;49.314;6.280;2024-03-02T02:24:21;16.38;;;2.30;;
46493;SDS011;53214;49.314;6.280;2024-03-02T02:26:47;9.52;;;2.15;;
46493;SDS011;53214;49.314;6.280;2024-03-02T02:29:14;15.45;;;2.10;;
46493;SDS011;53214;49.314;6.280;2024-03-02T02:31:41;10.60;;;2.22;;
46493;SDS011;53214;49.314;6.280;2024-03-02T02:34:08;12.50;;;2.03;;
46493;SDS011;53214;49.314;6.280;2024-03-02T02:36:37;10.98;;;1.90;;
46493;SDS011;53214;49.314;6.280;2024-03-02T02:39:06;9.18;;;1.77;;
46493;SDS011;53214;49.314;6.280;2024-03-02T02:41:37;8.52;;;1.70;;
46493;SDS011;53214;49.314;6.280;2024-03-02T02:44:04;12.02;;;1.80;;
46493;SDS011;53214;49.314;6.280;2024-03-02T02:46:31;7.70;;;1.35;;
46493;SDS011;53214;49.314;6.280;2024-03-02T02:48:58;11.30;;;1.42;;
46493;SDS011;53214;49.314;6.280;2024-03-02T02:51:25;10.45;;;1.67;;
46493;SDS011;53214;49.314;6.280;2024-03-02T02:53:52;9.57;;;1.45;;
46493;SDS011;53214;49.314;6.280;2024-03-02T02:56:19;10.82;;;1.92;;
46493;SDS011;53214;49.314;6.280;2024-03-02T02:58:46;12.45;;;2.92;;
46493;SDS011;53214;49.314;6.280;2024-03-02T03:01:13;10.68;;;1.95;;
46493;SDS011;53214;49.314;6.280;2024-03-02T03:03:40;13.35;;;1.98;;
46493;SDS011;53214;49.314;6.280;2024-03-02T03:06:07;13.13;;;1.88;;
46493;SDS011;53214;49.314;6.280;2024-03-02T03:08:33;12.23;;;1.52;;
46493;SDS011;53214;49.314;6.280;2024-03-02T03:11:00;8.68;;;1.85;;
46493;SDS011;53214;49.314;6.280;2024-03-02T03:13:27;10.95;;;1.73;;
46493;SDS011;53214;49.314;6.280;2024-03-02T03:15:54;9.60;;;1.63;;
46493;SDS011;53214;49.314;6.280;2024-03-02T03:18:21;10.68;;;2.08;;
46493;SDS011;53214;49.314;6.280;2024-03-02T03:20:48;11.05;;;2.13;;
46493;SDS011;53214;49.314;6.280;2024-03-02T03:23:15;8.82;;;1.92;;
46493;SDS011;53214;49.314;6.280;2024-03-02T03:25:43;9.77;;;1.73;;
46493;SDS011;53214;49.314;6.280;2024-03-02T03:28:10;14.48;;;1.83;;
46493;SDS011;53214;49.314;6.280;2024-03-02T03:30:37;10.98;;;2.00;;
46493;SDS011;53214;49.314;6.280;2024-03-02T03:33:05;10.35;;;1.48;;
46493;SDS011;53214;49.314;6.280;2024-03-02T03:35:32;10.13;;;2.05;;
46493;SDS011;53214;49.314;6.280;2024-03-02T03:38:00;9.63;;;1.80;;
46493;SDS011;53214;49.314;6.280;2024-03-02T03:40:27;11.40;;;2.17;;
46493;SDS011;53214;49.314;6.280;2024-03-02T03:42:53;11.88;;;2.10;;
46493;SDS011;53214;49.314;6.280;2024-03-02T03:45:22;13.40;;;2.25;;
46493;SDS011;53214;49.314;6.280;2024-03-02T03:47:49;14.20;;;2.03;;
46493;SDS011;53214;49.314;6.280;2024-03-02T03:50:15;11.52;;;1.80;;
46493;SDS011;53214;49.314;6.280;2024-03-02T03:52:42;11.63;;;1.85;;
46493;SDS011;53214;49.314;6.280;2024-03-02T03:55:10;11.35;;;2.25;;
46493;SDS011;53214;49.314;6.280;2024-03-02T03:57:36;13.25;;;1.85;;
46493;SDS011;53214;49.314;6.280;2024-03-02T04:00:03;12.75;;;1.63;;
46493;SDS011;53214;49.314;6.280;2024-03-02T04:02:30;9.50;;;1.80;;
46493;SDS011;53214;49.314;6.280;2024-03-02T04:04:57;12.40;;;1.92;;
46493;SDS011;53214;49.314;6.280;2024-03-02T04:07:24;11.27;;;1.70;;
46493;SDS011;53214;49.314;6.280;2024-03-02T04:09:51;11.88;;;1.80;;
46493;SDS011;53214;49.314;6.280;2024-03-02T04:12:18;10.90;;;1.80;;
46493;SDS011;53214;49.314;6.280;2024-03-02T04:14:44;15.93;;;1.95;;
46493;SDS011;53214;49.314;6.280;2024-03-02T04:17:11;11.95;;;1.60;;
46493;SDS011;53214;49.314;6.280;2024-03-02T04:19:39;13.23;;;2.20;;
46493;SDS011;53214;49.314;6.280;2024-03-02T04:22:06;10.52;;;2.28;;
46493;SDS011;53214;49.314;6.280;2024-03-02T04:24:46;13.15;;;1.95;;
46493;SDS011;53214;49.314;6.280;2024-03-02T04:27:13;11.38;;;1.63;;
46493;SDS011;53214;49.314;6.280;2024-03-02T04:29:39;15.23;;;2.08;;
46493;SDS011;53214;49.314;6.280;2024-03-02T04:32:06;15.98;;;1.90;;
46493;SDS011;53214;49.314;6.280;2024-03-02T04:34:33;12.02;;;1.63;;
46493;SDS011;53214;49.314;6.280;2024-03-02T04:37:00;10.68;;;2.03;;
46493;SDS011;53214;49.314;6.280;2024-03-02T04:39:27;10.82;;;2.38;;
46493;SDS011;53214;49.314;6.280;2024-03-02T04:41:54;12.07;;;1.92;;
46493;SDS011;53214;49.314;6.280;2024-03-02T04:44:20;11.55;;;2.22;;
46493;SDS011;53214;49.314;6.280;2024-03-02T04:46:47;9.55;;;1.92;;
46493;SDS011;53214;49.314;6.280;2024-03-02T04:49:14;12.38;;;1.70;;
46493;SDS011;53214;49.314;6.280;2024-03-02T04:51:41;11.93;;;1.85;;
46493;SDS011;53214;49.314;6.280;2024-03-02T04:54:07;14.60;;;1.92;;
46493;SDS011;53214;49.314;6.280;2024-03-02T04:56:34;9.75;;;1.88;;
46493;SDS011;53214;49.314;6.280;2024-03-02T04:59:11;14.15;;;2.33;;
46493;SDS011;53214;49.314;6.280;2024-03-02T05:01:38;11.30;;;1.92;;
46493;SDS011;53214;49.314;6.280;2024-03-02T05:04:04;13.40;;;1.88;;
46493;SDS011;53214;49.314;6.280;2024-03-02T05:06:31;14.45;;;1.90;;
46493;SDS011;53214;49.314;6.280;2024-03-02T05:08:58;11.15;;;1.90;;
46493;SDS011;53214;49.314;6.280;2024-03-02T05:11:25;13.25;;;1.90;;
46493;SDS011;53214;49.314;6.280;2024-03-02T05:14:05;16.63;;;2.30;;
46493;SDS011;53214;49.314;6.280;2024-03-02T05:16:36;11.57;;;2.03;;
46493;SDS011;53214;49.314;6.280;2024-03-02T05:19:07;15.73;;;2.40;;
46493;SDS011;53214;49.314;6.280;2024-03-02T05:21:34;11.07;;;2.35;;
46493;SDS011;53214;49.314;6.280;2024-03-02T05:24:01;15.32;;;2.10;;
46493;SDS011;53214;49.314;6.280;2024-03-02T05:26:28;11.35;;;1.88;;
46493;SDS011;53214;49.314;6.280;2024-03-02T05:28:55;9.50;;;1.85;;
46493;SDS011;53214;49.314;6.280;2024-03-02T05:31:22;15.80;;;2.60;;
46493;SDS011;53214;49.314;6.280;2024-03-02T05:33:48;13.77;;;3.10;;
46493;SDS011;53214;49.314;6.280;2024-03-02T05:36:18;14.60;;;2.28;;
46493;SDS011;53214;49.314;6.280;2024-03-02T05:38:44;8.25;;;1.67;;
46493;SDS011;53214;49.314;6.280;2024-03-02T05:41:11;12.32;;;2.75;;
46493;SDS011;53214;49.314;6.280;2024-03-02T05:43:38;11.77;;;2.10;;
46493;SDS011;53214;49.314;6.280;2024-03-02T05:46:05;13.90;;;2.55;;
46493;SDS011;53214;49.314;6.280;2024-03-02T05:48:32;10.65;;;2.25;;
46493;SDS011;53214;49.314;6.280;2024-03-02T05:50:59;14.25;;;2.22;;
46493;SDS011;53214;49.314;6.280;2024-03-02T05:53:26;17.35;;;2.22;;
46493;SDS011;53214;49.314;6.280;2024-03-02T05:55:53;12.13;;;1.95;;
46493;SDS011;53214;49.314;6.280;2024-03-02T05:58:22;13.38;;;2.22;;
46493;SDS011;53214;49.314;6.280;2024-03-02T06:01:27;10.07;;;1.70;;
46493;SDS011;53214;49.314;6.280;2024-03-02T06:03:56;15.55;;;1.95;;
46493;SDS011;53214;49.314;6.280;2024-03-02T06:06:23;15.98;;;2.35;;
46493;SDS011;53214;49.314;6.280;2024-03-02T06:08:50;8.90;;;2.03;;
46493;SDS011;53214;49.314;6.280;2024-03-02T06:11:18;10.82;;;1.85;;
46493;SDS011;53214;49.314;6.280;2024-03-02T06:13:45;8.02;;;1.63;;
46493;SDS011;53214;49.314;6.280;2024-03-02T06:16:12;12.25;;;2.10;;
46493;SDS011;53214;49.314;6.280;2024-03-02T06:18:39;11.25;;;2.10;;
46493;SDS011;53214;49.314;6.280;2024-03-02T06:21:06;13.50;;;2.20;;
46493;SDS011;53214;49.314;6.280;2024-03-02T06:23:32;13.43;;;2.35;;
46493;SDS011;53214;49.314;6.280;2024-03-02T06:25:59;12.60;;;2.42;;
46493;SDS011;53214;49.314;6.280;2024-03-02T06:28:26;11.10;;;1.98;;
46493;SDS011;53214;49.314;6.280;2024-03-02T06:30:53;15.27;;;2.38;;
46493;SDS011;53214;49.314;6.280;2024-03-02T06:33:20;11.48;;;2.33;;
46493;SDS011;53214;49.314;6.280;2024-03-02T06:35:47;16.17;;;2.20;;
46493;SDS011;53214;49.314;6.280;2024-03-02T06:38:15;17.83;;;2.30;;
46493;SDS011;53214;49.314;6.280;2024-03-02T06:40:42;13.93;;;2.40;;
46493;SDS011;53214;49.314;6.280;2024-03-02T06:43:08;14.38;;;2.25;;
46493;SDS011;53214;49.314;6.280;2024-03-02T06:45:35;9.13;;;1.70;;
46493;SDS011;53214;49.314;6.280;2024-03-02T06:48:02;11.63;;;1.88;;
46493;SDS011;53214;49.314;6.280;2024-03-02T06:50:29;17.33;;;2.47;;
46493;SDS011;53214;49.314;6.280;2024-03-02T06:52:56;14.65;;;2.35;;
46493;SDS011;53214;49.314;6.280;2024-03-02T06:55:23;15.95;;;2.20;;
46493;SDS011;53214;49.314;6.280;2024-03-02T06:57:53;11.60;;;1.98;;
46493;SDS011;53214;49.314;6.280;2024-03-02T07:00:20;11.50;;;2.10;;
46493;SDS011;53214;49.314;6.280;2024-03-02T07:02:47;13.95;;;2.30;;
46493;SDS011;53214;49.314;6.280;2024-03-02T07:05:14;9.60;;;1.80;;
46493;SDS011;53214;49.314;6.280;2024-03-02T07:07:41;9.82;;;2.03;;
46493;SDS011;53214;49.314;6.280;2024-03-02T07:10:08;12.80;;;2.30;;
46493;SDS011;53214;49.314;6.280;2024-03-02T07:12:35;12.35;;;2.45;;
46493;SDS011;53214;49.314;6.280;2024-03-02T07:15:02;7.25;;;2.13;;
46493;SDS011;53214;49.314;6.280;2024-03-02T07:17:29;13.00;;;2.45;;
46493;SDS011;53214;49.314;6.280;2024-03-02T07:19:57;9.45;;;1.63;;
46493;SDS011;53214;49.314;6.280;2024-03-02T07:22:24;13.90;;;1.95;;
46493;SDS011;53214;49.314;6.280;2024-03-02T07:24:51;11.70;;;2.38;;
46493;SDS011;53214;49.314;6.280;2024-03-02T07:27:18;8.15;;;1.80;;
46493;SDS011;53214;49.314;6.280;2024-03-02T07:29:44;10.98;;;2.58;;
46493;SDS011;53214;49.314;6.280;2024-03-02T07:32:11;12.00;;;2.72;;
46493;SDS011;53214;49.314;6.280;2024-03-02T07:34:38;9.40;;;1.83;;
46493;SDS011;53214;49.314;6.280;2024-03-02T07:37:05;11.30;;;2.03;;
46493;SDS011;53214;49.314;6.280;2024-03-02T07:39:32;8.70;;;2.03;;
46493;SDS011;53214;49.314;6.280;2024-03-02T07:41:59;10.05;;;1.80;;
46493;SDS011;53214;49.314;6.280;2024-03-02T07:44:26;12.30;;;2.22;;
46493;SDS011;53214;49.314;6.280;2024-03-02T07:46:53;12.50;;;2.28;;
46493;SDS011;53214;49.314;6.280;2024-03-02T07:49:20;10.65;;;2.70;;
46493;SDS011;53214;49.314;6.280;2024-03-02T07:51:47;13.02;;;2.20;;
46493;SDS011;53214;49.314;6.280;2024-03-02T07:54:14;8.18;;;2.25;;
46493;SDS011;53214;49.314;6.280;2024-03-02T07:56:41;11.27;;;2.10;;
46493;SDS011;53214;49.314;6.280;2024-03-02T07:59:08;10.90;;;2.13;;
46493;SDS011;53214;49.314;6.280;2024-03-02T08:01:34;14.02;;;4.22;;
46493;SDS011;53214;49.314;6.280;2024-03-02T08:04:02;12.60;;;3.63;;
46493;SDS011;53214;49.314;6.280;2024-03-02T08:06:31;14.70;;;3.75;;
46493;SDS011;53214;49.314;6.280;2024-03-02T08:08:59;12.55;;;2.65;;
46493;SDS011;53214;49.314;6.280;2024-03-02T08:11:27;14.65;;;3.85;;
46493;SDS011;53214;49.314;6.280;2024-03-02T08:13:55;15.00;;;3.38;;
46493;SDS011;53214;49.314;6.280;2024-03-02T08:16:25;21.63;;;7.10;;
46493;SDS011;53214;49.314;6.280;2024-03-02T08:18:52;10.45;;;2.65;;
46493;SDS011;53214;49.314;6.280;2024-03-02T08:21:19;11.57;;;4.47;;
46493;SDS011;53214;49.314;6.280;2024-03-02T08:23:47;15.25;;;4.20;;
46493;SDS011;53214;49.314;6.280;2024-03-02T08:26:14;14.63;;;4.38;;
46493;SDS011;53214;49.314;6.280;2024-03-02T08:28:40;13.02;;;2.50;;
46493;SDS011;53214;49.314;6.280;2024-03-02T08:31:08;13.93;;;2.20;;
46493;SDS011;53214;49.314;6.280;2024-03-02T08:33:35;13.90;;;3.20;;
46493;SDS011;53214;49.314;6.280;2024-03-02T08:36:04;10.15;;;2.20;;
46493;SDS011;53214;49.314;6.280;2024-03-02T08:38:31;8.57;;;2.15;;
46493;SDS011;53214;49.314;6.280;2024-03-02T08:40:58;13.40;;;2.33;;
46493;SDS011;53214;49.314;6.280;2024-03-02T08:43:25;14.07;;;2.55;;
46493;SDS011;53214;49.314;6.280;2024-03-02T08:45:52;11.00;;;2.08;;
46493;SDS011;53214;49.314;6.280;2024-03-02T08:48:19;12.30;;;2.35;;
46493;SDS011;53214;49.314;6.280;2024-03-02T08:50:47;12.18;;;2.55;;
46493;SDS011;53214;49.314;6.280;2024-03-02T08:53:14;13.77;;;2.70;;
46493;SDS011;53214;49.314;6.280;2024-03-02T08:55:45;12.13;;;3.05;;
46493;SDS011;53214;49.314;6.280;2024-03-02T08:58:12;11.45;;;2.75;;
46493;SDS011;53214;49.314;6.280;2024-03-02T09:00:39;12.90;;;2.90;;
46493;SDS011;53214;49.314;6.280;2024-03-02T09:03:07;10.50;;;3.00;;
46493;SDS011;53214;49.314;6.280;2024-03-02T09:05:34;12.57;;;3.90;;
46493;SDS011;53214;49.314;6.280;2024-03-02T09:08:01;11.35;;;3.40;;
46493;SDS011;53214;49.314;6.280;2024-03-02T09:10:29;12.73;;;3.50;;
46493;SDS011;53214;49.314;6.280;2024-03-02T09:12:56;17.63;;;3.40;;
46493;SDS011;53214;49.314;6.280;2024-03-02T09:15:24;12.93;;;2.72;;
46493;SDS011;53214;49.314;6.280;2024-03-02T09:17:50;11.90;;;2.92;;
46493;SDS011;53214;49.314;6.280;2024-03-02T09:20:17;16.73;;;2.33;;
46493;SDS011;53214;49.314;6.280;2024-03-02T09:22:44;12.32;;;2.50;;
46493;SDS011;53214;49.314;6.280;2024-03-02T09:25:13;14.85;;;2.95;;
46493;SDS011;53214;49.314;6.280;2024-03-02T09:27:40;16.92;;;3.22;;
46493;SDS011;53214;49.314;6.280;2024-03-02T09:30:07;17.15;;;4.43;;
46493;SDS011;53214;49.314;6.280;2024-03-02T09:32:36;15.90;;;4.30;;
46493;SDS011;53214;49.314;6.280;2024-03-02T09:35:04;10.60;;;2.22;;
46493;SDS011;53214;49.314;6.280;2024-03-02T09:37:31;13.00;;;2.50;;
46493;SDS011;53214;49.314;6.280;2024-03-02T09:39:57;12.95;;;2.25;;
46493;SDS011;53214;49.314;6.280;2024-03-02T09:42:25;8.10;;;1.70;;
46493;SDS011;53214;49.314;6.280;2024-03-02T09:44:52;14.50;;;2.15;;
46493;SDS011;53214;49.314;6.280;2024-03-02T09:47:19;9.60;;;1.90;;
46493;SDS011;53214;49.314;6.280;2024-03-02T09:49:46;10.07;;;1.92;;
46493;SDS011;53214;49.314;6.280;2024-03-02T09:52:14;12.27;;;2.28;;
46493;SDS011;53214;49.314;6.280;2024-03-02T09:54:41;7.78;;;1.98;;
46493;SDS011;53214;49.314;6.280;2024-03-02T09:57:08;11.77;;;2.38;;
46493;SDS011;53214;49.314;6.280;2024-03-02T09:59:35;9.45;;;1.80;;
46493;SDS011;53214;49.314;6.280;2024-03-02T10:02:02;7.68;;;1.55;;
46493;SDS011;53214;49.314;6.280;2024-03-02T10:04:30;8.88;;;1.60;;
46493;SDS011;53214;49.314;6.280;2024-03-02T10:07:12;7.78;;;2.08;;
46493;SDS011;53214;49.314;6.280;2024-03-02T10:09:40;9.27;;;2.28;;
46493;SDS011;53214;49.314;6.280;2024-03-02T10:12:08;6.80;;;1.60;;
46493;SDS011;53214;49.314;6.280;2024-03-02T10:14:35;9.23;;;1.52;;
46493;SDS011;53214;49.314;6.280;2024-03-02T10:17:03;7.63;;;2.20;;
46493;SDS011;53214;49.314;6.280;2024-03-02T10:19:34;11.50;;;1.83;;
46493;SDS011;53214;49.314;6.280;2024-03-02T10:22:06;9.68;;;1.85;;
46493;SDS011;53214;49.314;6.280;2024-03-02T10:24:38;8.45;;;1.77;;
46493;SDS011;53214;49.314;6.280;2024-03-02T10:27:16;9.00;;;1.92;;
46493;SDS011;53214;49.314;6.280;2024-03-02T10:29:47;5.78;;;1.40;;
46493;SDS011;53214;49.314;6.280;2024-03-02T10:32:14;8.98;;;1.52;;
46493;SDS011;53214;49.314;6.280;2024-03-02T10:34:42;6.15;;;1.40;;
46493;SDS011;53214;49.314;6.280;2024-03-02T10:37:11;6.55;;;1.63;;
46493;SDS011;53214;49.314;6.280;2024-03-02T10:39:39;8.55;;;1.60;;
46493;SDS011;53214;49.314;6.280;2024-03-02T10:42:07;7.72;;;1.30;;
46493;SDS011;53214;49.314;6.280;2024-03-02T10:44:34;5.95;;;1.13;;
46493;SDS011;53214;49.314;6.280;2024-03-02T10:47:03;6.25;;;1.30;;
46493;SDS011;53214;49.314;6.280;2024-03-02T10:49:31;5.38;;;1.17;;
46493;SDS011;53214;49.314;6.280;2024-03-02T10:51:59;7.57;;;1.55;;
46493;SDS011;53214;49.314;6.280;2024-03-02T10:54:27;7.95;;;1.50;;
46493;SDS011;53214;49.314;6.280;2024-03-02T10:56:58;8.55;;;2.00;;
46493;SDS011;53214;49.314;6.280;2024-03-02T11:01:57;7.45;;;1.35;;
46493;SDS011;53214;49.314;6.280;2024-03-02T11:04:31;9.38;;;1.98;;
46493;SDS011;53214;49.314;6.280;2024-03-02T11:09:27;6.55;;;1.50;;
46493;SDS011;53214;49.314;6.280;2024-03-02T11:12:00;6.05;;;1.40;;
46493;SDS011;53214;49.314;6.280;2024-03-02T11:14:45;7.22;;;1.80;;
46493;SDS011;53214;49.314;6.280;2024-03-02T11:17:13;7.32;;;1.73;;
46493;SDS011;53214;49.314;6.280;2024-03-02T11:19:44;6.32;;;1.25;;
46493;SDS011;53214;49.314;6.280;2024-03-02T11:22:12;8.00;;;1.85;;
46493;SDS011;53214;49.314;6.280;2024-03-02T11:24:47;7.57;;;1.70;;
46493;SDS011;53214;49.314;6.280;2024-03-02T11:30:54;7.00;;;1.73;;
46493;SDS011;53214;49.314;6.280;2024-03-02T11:33:03;8.27;;;2.05;;
46493;SDS011;53214;49.314;6.280;2024-03-02T11:35:44;10.73;;;2.08;;
46493;SDS011;53214;49.314;6.280;2024-03-02T11:38:15;6.88;;;1.85;;
46493;SDS011;53214;49.314;6.280;2024-03-02T11:40:44;11.15;;;3.53;;
46493;SDS011;53214;49.314;6.280;2024-03-02T11:43:10;9.40;;;2.72;;
46493;SDS011;53214;49.314;6.280;2024-03-02T11:45:38;5.18;;;1.50;;
46493;SDS011;53214;49.314;6.280;2024-03-02T11:48:11;8.73;;;2.08;;
46493;SDS011;53214;49.314;6.280;2024-03-02T11:50:46;8.65;;;4.40;;
46493;SDS011;53214;49.314;6.280;2024-03-02T11:53:15;15.30;;;9.55;;
46493;SDS011;53214;49.314;6.280;2024-03-02T11:55:43;8.50;;;4.03;;
46493;SDS011;53214;49.314;6.280;2024-03-02T11:58:17;8.95;;;2.00;;
46493;SDS011;53214;49.314;6.280;2024-03-02T12:00:47;8.32;;;2.33;;
46493;SDS011;53214;49.314;6.280;2024-03-02T12:03:16;9.50;;;2.00;;
46493;SDS011;53214;49.314;6.280;2024-03-02T12:05:43;8.10;;;2.10;;
46493;SDS011;53214;49.314;6.280;2024-03-02T12:08:11;8.80;;;2.33;;
46493;SDS011;53214;49.314;6.280;2024-03-02T12:10:39;9.52;;;2.42;;
46493;SDS011;53214;49.314;6.280;2024-03-02T12:13:06;9.88;;;3.50;;
46493;SDS011;53214;49.314;6.280;2024-03-02T12:15:34;14.95;;;8.45;;
46493;SDS011;53214;49.314;6.280;2024-03-02T12:18:06;7.32;;;2.10;;
46493;SDS011;53214;49.314;6.280;2024-03-02T12:20:34;9.77;;;2.78;;
46493;SDS011;53214;49.314;6.280;2024-03-02T12:23:02;9.77;;;3.63;;
46493;SDS011;53214;49.314;6.280;2024-03-02T12:25:30;9.18;;;3.50;;
46493;SDS011;53214;49.314;6.280;2024-03-02T12:28:00;8.30;;;2.83;;
46493;SDS011;53214;49.314;6.280;2024-03-02T12:30:29;9.45;;;2.40;;
46493;SDS011;53214;49.314;6.280;2024-03-02T12:32:57;11.23;;;2.15;;
46493;SDS011;53214;49.314;6.280;2024-03-02T12:35:24;6.88;;;1.80;;
46493;SDS011;53214;49.314;6.280;2024-03-02T12:37:52;5.82;;;1.83;;
46493;SDS011;53214;49.314;6.280;2024-03-02T12:40:20;8.27;;;1.83;;
46493;SDS011;53214;49.314;6.280;2024-03-02T12:42:49;10.23;;;1.92;;
46493;SDS011;53214;49.314;6.280;2024-03-02T12:45:17;9.65;;;2.65;;
46493;SDS011;53214;49.314;6.280;2024-03-02T12:47:51;6.75;;;1.42;;
46493;SDS011;53214;49.314;6.280;2024-03-02T12:50:19;6.80;;;1.55;;
46493;SDS011;53214;49.314;6.280;2024-03-02T12:52:53;9.02;;;1.60;;
46493;SDS011;53214;49.314;6.280;2024-03-02T12:55:22;4.05;;;1.52;;
46493;SDS011;53214;49.314;6.280;2024-03-02T12:57:50;13.82;;;7.97;;
46493;SDS011;53214;49.314;6.280;2024-03-02T13:00:19;8.55;;;3.33;;
46493;SDS011;53214;49.314;6.280;2024-03-02T13:02:48;6.25;;;1.70;;
46493;SDS011;53214;49.314;6.280;2024-03-02T13:05:16;5.75;;;2.00;;
46493;SDS011;53214;49.314;6.280;2024-03-02T13:07:43;8.07;;;2.33;;
46493;SDS011;53214;49.314;6.280;2024-03-02T13:10:12;8.80;;;2.13;;
46493;SDS011;53214;49.314;6.280;2024-03-02T13:12:39;6.38;;;1.98;;
46493;SDS011;53214;49.314;6.280;2024-03-02T13:15:06;7.68;;;1.75;;
46493;SDS011;53214;49.314;6.280;2024-03-02T13:17:34;8.05;;;1.58;;
46493;SDS011;53214;49.314;6.280;2024-03-02T13:20:04;6.13;;;1.58;;
46493;SDS011;53214;49.314;6.280;2024-03-02T13:22:36;6.55;;;1.83;;
46493;SDS011;53214;49.314;6.280;2024-03-02T13:25:03;8.60;;;1.75;;
46493;SDS011;53214;49.314;6.280;2024-03-02T13:27:32;4.43;;;1.60;;
46493;SDS011;53214;49.314;6.280;2024-03-02T13:29:59;7.25;;;1.48;;
46493;SDS011;53214;49.314;6.280;2024-03-02T13:32:26;7.30;;;1.58;;
46493;SDS011;53214;49.314;6.280;2024-03-02T13:34:53;7.88;;;1.88;;
46493;SDS011;53214;49.314;6.280;2024-03-02T13:37:20;7.25;;;1.73;;
46493;SDS011;53214;49.314;6.280;2024-03-02T13:39:48;4.82;;;1.50;;
46493;SDS011;53214;49.314;6.280;2024-03-02T13:42:15;7.07;;;1.58;;
46493;SDS011;53214;49.314;6.280;2024-03-02T13:44:45;6.97;;;1.80;;
46493;SDS011;53214;49.314;6.280;2024-03-02T13:47:14;6.75;;;1.50;;
46493;SDS011;53214;49.314;6.280;2024-03-02T13:49:41;5.88;;;1.48;;
46493;SDS011;53214;49.314;6.280;2024-03-02T13:52:13;7.57;;;1.65;;
46493;SDS011;53214;49.314;6.280;2024-03-02T13:54:43;7.18;;;1.27;;
46493;SDS011;53214;49.314;6.280;2024-03-02T13:57:11;7.43;;;2.00;;
46493;SDS011;53214;49.314;6.280;2024-03-02T13:59:39;8.07;;;1.70;;
46493;SDS011;53214;49.314;6.280;2024-03-02T14:02:06;8.68;;;1.60;;
46493;SDS011;53214;49.314;6.280;2024-03-02T14:04:34;5.72;;;1.60;;
46493;SDS011;53214;49.314;6.280;2024-03-02T14:07:01;6.75;;;1.58;;
46493;SDS011;53214;49.314;6.280;2024-03-02T14:09:28;9.35;;;3.45;;
46493;SDS011;53214;49.314;6.280;2024-03-02T14:11:55;6.70;;;1.77;;
46493;SDS011;53214;49.314;6.280;2024-03-02T14:14:23;8.98;;;2.10;;
46493;SDS011;53214;49.314;6.280;2024-03-02T14:16:50;6.75;;;1.85;;
46493;SDS011;53214;49.314;6.280;2024-03-02T14:19:19;9.07;;;1.92;;
46493;SDS011;53214;49.314;6.280;2024-03-02T14:21:47;6.13;;;2.05;;
46493;SDS011;53214;49.314;6.280;2024-03-02T14:24:14;8.60;;;2.78;;
46493;SDS011;53214;49.314;6.280;2024-03-02T14:26:41;6.00;;;1.83;;
46493;SDS011;53214;49.314;6.280;2024-03-02T14:29:08;6.47;;;1.90;;
46493;SDS011;53214;49.314;6.280;2024-03-02T14:31:35;6.93;;;1.92;;
46493;SDS011;53214;49.314;6.280;2024-03-02T14:34:01;6.10;;;1.80;;
46493;SDS011;53214;49.314;6.280;2024-03-02T14:36:29;7.60;;;1.60;;
46493;SDS011;53214;49.314;6.280;2024-03-02T14:38:56;7.10;;;2.00;;
46493;SDS011;53214;49.314;6.280;2024-03-02T14:41:23;8.55;;;2.63;;
46493;SDS011;53214;49.314;6.280;2024-03-02T14:43:51;7.60;;;2.08;;
46493;SDS011;53214;49.314;6.280;2024-03-02T14:46:18;9.90;;;2.80;;
46493;SDS011;53214;49.314;6.280;2024-03-02T14:48:46;5.30;;;1.73;;
46493;SDS011;53214;49.314;6.280;2024-03-02T14:51:13;7.32;;;1.95;;
46493;SDS011;53214;49.314;6.280;2024-03-02T14:53:41;5.55;;;1.70;;
46493;SDS011;53214;49.314;6.280;2024-03-02T14:56:08;9.65;;;1.98;;